PWSweather.com
Personal Weather Stations
Station Observations
ZYBORSKI
Fromes HillGB hr8 1

Fromes HillGB hr8 1

Lat: 52.1172558, Lon: -2.4749163

Elevation: 0

Station Type: FineOffset

High Low Average
Temperature 46.9°F8.3°F 42.6°F5.9°F 44.3°F6.8°F
Dew Point 46.3°F7.9°F 42.4°F5.8°F 44.0°F6.7°F
Winds 15.9 mph W25.6 mph W Calm Calm 4.8 mph 7.7 mph
Wind Gusts 28.9 mph46.5 mph -- 14.0 mph22.5 mph
Humidity 99% 95% 99%
Pressure 30.66 in1038.30 in 30.42 in1030.10 in -
Precipitation 0.20 in5.10 in - -
Hour Temp Dew Point Humidity Winds Wind Gusts Pressure Precip Precip Rate Daily Precip Total
12:00 AM 43.5°F6.4°C 43.3°F6.3°C 99% 8.3 mph W13.4 kmh W 22.8 mph36.7 kmh 30.42 in1030.1 mb 0.00 in0.0 mm 0.00 in/hr0.0 mm/hr 0.00 in0.0 mm
12:15 AM 43.3°F6.3°C 43.1°F6.2°C 99% 8.3 mph W13.4 kmh W 19.0 mph30.6 kmh 30.42 in1030.1 mb 0.00 in0.0 mm 0.00 in/hr0.0 mm/hr 0.00 in0.0 mm
12:30 AM 43.0°F6.1°C 42.7°F5.9°C 99% 6.0 mph W9.7 kmh W 19.0 mph30.6 kmh 30.43 in1030.5 mb 0.00 in0.0 mm 0.00 in/hr0.0 mm/hr 0.00 in0.0 mm
12:45 AM 43.0°F6.1°C 42.7°F5.9°C 99% 6.0 mph W9.7 kmh W 19.0 mph30.6 kmh 30.42 in1030.1 mb 0.00 in0.0 mm 0.00 in/hr0.0 mm/hr 0.00 in0.0 mm
01:00 AM 43.3°F6.3°C 43.1°F6.2°C 99% 7.6 mph WSW12.2 kmh WSW 20.6 mph33.2 kmh 30.43 in1030.5 mb 0.00 in0.0 mm 0.00 in/hr0.0 mm/hr 0.00 in0.0 mm
01:15 AM 43.3°F6.3°C 43.1°F6.2°C 99% 5.4 mph W8.7 kmh W 15.9 mph25.6 kmh 30.43 in1030.5 mb 0.00 in0.0 mm 0.00 in/hr0.0 mm/hr 0.00 in0.0 mm
01:30 AM 43.2°F6.2°C 42.9°F6.1°C 99% 7.6 mph W12.2 kmh W 21.3 mph34.3 kmh 30.43 in1030.5 mb 0.00 in0.0 mm 0.00 in/hr0.0 mm/hr 0.00 in0.0 mm
01:45 AM 43.2°F6.2°C 42.9°F6.1°C 99% 8.3 mph WSW13.4 kmh WSW 19.0 mph30.6 kmh 30.43 in1030.5 mb 0.00 in0.0 mm 0.00 in/hr0.0 mm/hr 0.00 in0.0 mm
02:00 AM 43.0°F6.1°C 42.7°F5.9°C 99% 6.0 mph WSW9.7 kmh WSW 16.8 mph27.0 kmh 30.43 in1030.5 mb 0.00 in0.0 mm 0.00 in/hr0.0 mm/hr 0.00 in0.0 mm
02:15 AM 43.2°F6.2°C 42.9°F6.1°C 99% 6.0 mph WSW9.7 kmh WSW 18.3 mph29.5 kmh 30.43 in1030.5 mb 0.00 in0.0 mm 0.00 in/hr0.0 mm/hr 0.00 in0.0 mm
02:30 AM 43.2°F6.2°C 42.9°F6.1°C 99% 6.9 mph W11.1 kmh W 16.8 mph27.0 kmh 30.43 in1030.5 mb 0.00 in0.0 mm 0.00 in/hr0.0 mm/hr 0.00 in0.0 mm
02:45 AM 43.2°F6.2°C 42.9°F6.1°C 99% 2.2 mph WSW3.5 kmh WSW 14.5 mph23.3 kmh 30.43 in1030.5 mb 0.00 in0.0 mm 0.00 in/hr0.0 mm/hr 0.00 in0.0 mm
03:00 AM 43.2°F6.2°C 42.9°F6.1°C 99% 3.8 mph WSW6.1 kmh WSW 14.5 mph23.3 kmh 30.43 in1030.5 mb 0.00 in0.0 mm 0.00 in/hr0.0 mm/hr 0.00 in0.0 mm
03:15 AM 43.5°F6.4°C 43.3°F6.3°C 99% 7.6 mph W12.2 kmh W 17.4 mph28.0 kmh 30.43 in1030.5 mb 0.00 in0.0 mm 0.00 in/hr0.0 mm/hr 0.00 in0.0 mm
03:30 AM 43.2°F6.2°C 42.9°F6.1°C 99% 6.0 mph W9.7 kmh W 13.6 mph21.9 kmh 30.43 in1030.5 mb 0.00 in0.0 mm 0.00 in/hr0.0 mm/hr 0.00 in0.0 mm
03:45 AM 43.2°F6.2°C 42.9°F6.1°C 99% 9.2 mph W14.8 kmh W 22.1 mph35.6 kmh 30.43 in1030.5 mb 0.00 in0.0 mm 0.00 in/hr0.0 mm/hr 0.00 in0.0 mm
04:00 AM 42.8°F6.0°C 42.5°F5.8°C 99% 3.8 mph WSW6.1 kmh WSW 13.6 mph21.9 kmh 30.43 in1030.5 mb 0.00 in0.0 mm 0.00 in/hr0.0 mm/hr 0.00 in0.0 mm
04:15 AM 42.6°F5.9°C 42.4°F5.8°C 99% 9.8 mph W15.8 kmh W 19.0 mph30.6 kmh 30.43 in1030.5 mb 0.00 in0.0 mm 0.00 in/hr0.0 mm/hr 0.00 in0.0 mm
04:30 AM 42.6°F5.9°C 42.4°F5.8°C 99% 7.6 mph W12.2 kmh W 19.7 mph31.7 kmh 30.43 in1030.5 mb 0.00 in0.0 mm 0.00 in/hr0.0 mm/hr 0.00 in0.0 mm
04:45 AM 43.2°F6.2°C 42.9°F6.1°C 99% 9.8 mph W15.8 kmh W 25.9 mph41.7 kmh 30.43 in1030.5 mb 0.01 in0.3 mm 0.04 in/hr1.0 mm/hr 0.01 in0.3 mm
05:00 AM 43.9°F6.6°C 43.6°F6.4°C 99% 15.2 mph W24.5 kmh W 25.9 mph41.7 kmh 30.42 in1030.1 mb 0.01 in0.3 mm 0.00 in/hr0.0 mm/hr 0.01 in0.3 mm
05:15 AM 44.2°F6.8°C 44.0°F6.7°C 99% 15.2 mph W24.5 kmh W 25.9 mph41.7 kmh 30.43 in1030.5 mb 0.01 in0.3 mm 0.00 in/hr0.0 mm/hr 0.01 in0.3 mm
05:30 AM 44.1°F6.7°C 43.8°F6.6°C 99% 11.4 mph W18.3 kmh W 28.9 mph46.5 kmh 30.44 in1030.8 mb 0.05 in1.3 mm 0.16 in/hr4.1 mm/hr 0.05 in1.3 mm
05:45 AM 44.2°F6.8°C 44.0°F6.7°C 99% 10.7 mph W17.2 kmh W 20.6 mph33.2 kmh 30.43 in1030.5 mb 0.04 in1.0 mm 0.00 in/hr0.0 mm/hr 0.05 in1.3 mm
06:00 AM 44.2°F6.8°C 44.0°F6.7°C 99% 13.0 mph W20.9 kmh W 22.8 mph36.7 kmh 30.44 in1030.8 mb 0.04 in1.0 mm 0.00 in/hr0.0 mm/hr 0.05 in1.3 mm
06:15 AM 44.2°F6.8°C 44.0°F6.7°C 99% 11.4 mph W18.3 kmh W 24.4 mph39.3 kmh 30.43 in1030.5 mb 0.04 in1.0 mm 0.00 in/hr0.0 mm/hr 0.05 in1.3 mm
06:30 AM 44.4°F6.9°C 44.2°F6.8°C 99% 8.3 mph W13.4 kmh W 19.7 mph31.7 kmh 30.45 in1031.2 mb 0.00 in0.0 mm 0.00 in/hr0.0 mm/hr 0.05 in1.3 mm
06:45 AM 44.4°F6.9°C 43.9°F6.6°C 98% 6.0 mph W9.7 kmh W 19.0 mph30.6 kmh 30.45 in1031.2 mb 0.00 in0.0 mm 0.00 in/hr0.0 mm/hr 0.05 in1.3 mm
07:00 AM 44.2°F6.8°C 44.0°F6.7°C 99% 11.4 mph W18.3 kmh W 19.7 mph31.7 kmh 30.44 in1030.8 mb 0.00 in0.0 mm 0.00 in/hr0.0 mm/hr 0.05 in1.3 mm
07:15 AM 44.1°F6.7°C 43.8°F6.6°C 99% 5.4 mph WSW8.7 kmh WSW 22.8 mph36.7 kmh 30.45 in1031.2 mb 0.00 in0.0 mm 0.00 in/hr0.0 mm/hr 0.05 in1.3 mm
07:30 AM 44.1°F6.7°C 43.8°F6.6°C 99% 6.9 mph W11.1 kmh W 19.0 mph30.6 kmh 30.46 in1031.5 mb 0.00 in0.0 mm 0.00 in/hr0.0 mm/hr 0.05 in1.3 mm
07:45 AM 44.4°F6.9°C 44.2°F6.8°C 99% 7.6 mph W12.2 kmh W 15.9 mph25.6 kmh 30.47 in1031.8 mb 0.00 in0.0 mm 0.00 in/hr0.0 mm/hr 0.05 in1.3 mm
08:00 AM 44.4°F6.9°C 44.2°F6.8°C 99% 5.4 mph W8.7 kmh W 18.3 mph29.5 kmh 30.48 in1032.2 mb 0.00 in0.0 mm 0.00 in/hr0.0 mm/hr 0.05 in1.3 mm
08:15 AM 44.2°F6.8°C 44.0°F6.7°C 99% 3.8 mph W6.1 kmh W 16.8 mph27.0 kmh 30.48 in1032.2 mb 0.00 in0.0 mm 0.00 in/hr0.0 mm/hr 0.05 in1.3 mm
08:30 AM 43.9°F6.6°C 43.6°F6.4°C 99% 6.9 mph W11.1 kmh W 16.8 mph27.0 kmh 30.49 in1032.5 mb 0.00 in0.0 mm 0.00 in/hr0.0 mm/hr 0.05 in1.3 mm
08:45 AM 44.1°F6.7°C 43.8°F6.6°C 99% 2.2 mph W3.5 kmh W 12.1 mph19.5 kmh 30.50 in1032.8 mb 0.00 in0.0 mm 0.00 in/hr0.0 mm/hr 0.05 in1.3 mm
09:00 AM 44.2°F6.8°C 44.0°F6.7°C 99% 2.2 mph WSW3.5 kmh WSW 6.0 mph9.7 kmh 30.50 in1032.8 mb 0.00 in0.0 mm 0.00 in/hr0.0 mm/hr 0.05 in1.3 mm
09:15 AM 44.2°F6.8°C 44.0°F6.7°C 99% 1.6 mph W2.6 kmh W 13.6 mph21.9 kmh 30.51 in1033.2 mb 0.00 in0.0 mm 0.00 in/hr0.0 mm/hr 0.05 in1.3 mm
09:30 AM 44.4°F6.9°C 44.2°F6.8°C 99% Calm Calm 7.6 mph12.2 kmh 30.51 in1033.2 mb 0.00 in0.0 mm 0.00 in/hr0.0 mm/hr 0.05 in1.3 mm
09:45 AM 44.8°F7.1°C 44.5°F6.9°C 99% Calm Calm 9.2 mph14.8 kmh 30.52 in1033.5 mb 0.00 in0.0 mm 0.00 in/hr0.0 mm/hr 0.05 in1.3 mm
10:00 AM 45.3°F7.4°C 45.1°F7.3°C 99% 2.2 mph WSW3.5 kmh WSW 6.9 mph11.1 kmh 30.53 in1033.9 mb 0.00 in0.0 mm 0.00 in/hr0.0 mm/hr 0.05 in1.3 mm
10:15 AM 45.5°F7.5°C 45.2°F7.3°C 99% 1.6 mph W2.6 kmh W 9.2 mph14.8 kmh 30.54 in1034.2 mb 0.00 in0.0 mm 0.00 in/hr0.0 mm/hr 0.05 in1.3 mm
10:30 AM 45.7°F7.6°C 45.1°F7.3°C 98% 3.1 mph W5.0 kmh W 9.8 mph15.8 kmh 30.54 in1034.2 mb 0.00 in0.0 mm 0.00 in/hr0.0 mm/hr 0.05 in1.3 mm
10:45 AM 45.7°F7.6°C 44.9°F7.2°C 97% 10.7 mph W17.2 kmh W 26.6 mph42.8 kmh 30.54 in1034.2 mb 0.00 in0.0 mm 0.00 in/hr0.0 mm/hr 0.05 in1.3 mm
11:00 AM 45.7°F7.6°C 45.4°F7.4°C 99% 6.0 mph W9.7 kmh W 15.9 mph25.6 kmh 30.54 in1034.2 mb 0.00 in0.0 mm 0.00 in/hr0.0 mm/hr 0.05 in1.3 mm
11:15 AM 45.5°F7.5°C 45.2°F7.3°C 99% 3.1 mph W5.0 kmh W 15.2 mph24.5 kmh 30.54 in1034.2 mb 0.00 in0.0 mm 0.00 in/hr0.0 mm/hr 0.05 in1.3 mm
11:30 AM 46.0°F7.8°C 45.8°F7.7°C 99% 6.0 mph W9.7 kmh W 15.9 mph25.6 kmh 30.54 in1034.2 mb 0.00 in0.0 mm 0.00 in/hr0.0 mm/hr 0.05 in1.3 mm
11:45 AM 46.6°F8.1°C 45.8°F7.7°C 97% 8.3 mph W13.4 kmh W 19.7 mph31.7 kmh 30.54 in1034.2 mb 0.00 in0.0 mm 0.00 in/hr0.0 mm/hr 0.05 in1.3 mm
12:00 PM 46.6°F8.1°C 45.2°F7.3°C 95% 13.0 mph W20.9 kmh W 24.4 mph39.3 kmh 30.54 in1034.2 mb 0.00 in0.0 mm 0.00 in/hr0.0 mm/hr 0.05 in1.3 mm
12:15 PM 46.9°F8.3°C 45.9°F7.7°C 96% 15.9 mph W25.6 kmh W 21.3 mph34.3 kmh 30.54 in1034.2 mb 0.00 in0.0 mm 0.00 in/hr0.0 mm/hr 0.05 in1.3 mm
12:30 PM 45.9°F7.7°C 45.6°F7.6°C 99% 9.2 mph W14.8 kmh W 21.3 mph34.3 kmh 30.55 in1034.5 mb 0.00 in0.0 mm 0.00 in/hr0.0 mm/hr 0.05 in1.3 mm
12:45 PM 45.7°F7.6°C 45.4°F7.4°C 99% 4.5 mph W7.2 kmh W 23.5 mph37.8 kmh 30.56 in1034.9 mb 0.00 in0.0 mm 0.00 in/hr0.0 mm/hr 0.05 in1.3 mm
01:00 PM 45.9°F7.7°C 45.6°F7.6°C 99% 2.2 mph W3.5 kmh W 13.6 mph21.9 kmh 30.56 in1034.9 mb 0.00 in0.0 mm 0.00 in/hr0.0 mm/hr 0.05 in1.3 mm
01:15 PM 46.4°F8.0°C 46.1°F7.8°C 99% 2.2 mph W3.5 kmh W 9.8 mph15.8 kmh 30.57 in1035.2 mb 0.00 in0.0 mm 0.00 in/hr0.0 mm/hr 0.05 in1.3 mm
01:30 PM 46.4°F8.0°C 46.1°F7.8°C 99% 9.8 mph W15.8 kmh W 21.3 mph34.3 kmh 30.58 in1035.6 mb 0.00 in0.0 mm 0.00 in/hr0.0 mm/hr 0.05 in1.3 mm
01:45 PM 45.3°F7.4°C 45.1°F7.3°C 99% 8.3 mph W13.4 kmh W 20.6 mph33.2 kmh 30.57 in1035.2 mb 0.00 in0.0 mm 0.00 in/hr0.0 mm/hr 0.05 in1.3 mm
02:00 PM 46.6°F8.1°C 46.3°F7.9°C 99% 7.6 mph W12.2 kmh W 22.1 mph35.6 kmh 30.57 in1035.2 mb 0.00 in0.0 mm 0.00 in/hr0.0 mm/hr 0.05 in1.3 mm
02:15 PM 46.8°F8.2°C 46.0°F7.8°C 97% 12.1 mph W19.5 kmh W 22.1 mph35.6 kmh 30.57 in1035.2 mb 0.00 in0.0 mm 0.00 in/hr0.0 mm/hr 0.05 in1.3 mm
02:30 PM 46.2°F7.9°C 45.4°F7.4°C 97% 9.2 mph W14.8 kmh W 18.3 mph29.5 kmh 30.58 in1035.6 mb 0.00 in0.0 mm 0.00 in/hr0.0 mm/hr 0.05 in1.3 mm
02:45 PM 45.7°F7.6°C 45.4°F7.4°C 99% 3.1 mph W5.0 kmh W 13.0 mph20.9 kmh 30.59 in1035.9 mb 0.00 in0.0 mm 0.00 in/hr0.0 mm/hr 0.05 in1.3 mm
03:00 PM 45.7°F7.6°C 45.4°F7.4°C 99% 9.2 mph W14.8 kmh W 18.3 mph29.5 kmh 30.58 in1035.6 mb 0.00 in0.0 mm 0.00 in/hr0.0 mm/hr 0.05 in1.3 mm
03:15 PM 45.3°F7.4°C 45.1°F7.3°C 99% 2.2 mph W3.5 kmh W 14.5 mph23.3 kmh 30.59 in1035.9 mb 0.00 in0.0 mm 0.00 in/hr0.0 mm/hr 0.05 in1.3 mm
03:30 PM 45.1°F7.3°C 44.9°F7.2°C 99% 6.9 mph WSW11.1 kmh WSW 13.0 mph20.9 kmh 30.59 in1035.9 mb 0.00 in0.0 mm 0.00 in/hr0.0 mm/hr 0.05 in1.3 mm
03:45 PM 45.1°F7.3°C 44.9°F7.2°C 99% 3.1 mph W5.0 kmh W 13.6 mph21.9 kmh 30.60 in1036.2 mb 0.00 in0.0 mm 0.00 in/hr0.0 mm/hr 0.05 in1.3 mm
04:00 PM 45.0°F7.2°C 44.7°F7.1°C 99% Calm Calm 9.2 mph14.8 kmh 30.61 in1036.6 mb 0.00 in0.0 mm 0.00 in/hr0.0 mm/hr 0.05 in1.3 mm
04:15 PM 44.6°F7.0°C 44.3°F6.8°C 99% Calm Calm 5.4 mph8.7 kmh 30.61 in1036.6 mb 0.00 in0.0 mm 0.00 in/hr0.0 mm/hr 0.05 in1.3 mm
04:30 PM 44.6°F7.0°C 44.3°F6.8°C 99% Calm Calm 5.4 mph8.7 kmh 30.62 in1036.9 mb 0.00 in0.0 mm 0.00 in/hr0.0 mm/hr 0.05 in1.3 mm
04:45 PM 44.1°F6.7°C 43.8°F6.6°C 99% Calm Calm 6.9 mph11.1 kmh 30.63 in1037.3 mb 0.00 in0.0 mm 0.00 in/hr0.0 mm/hr 0.05 in1.3 mm
05:00 PM 44.2°F6.8°C 44.0°F6.7°C 99% 2.2 mph WSW3.5 kmh WSW 9.2 mph14.8 kmh 30.63 in1037.3 mb 0.00 in0.0 mm 0.00 in/hr0.0 mm/hr 0.05 in1.3 mm
05:15 PM 44.1°F6.7°C 43.8°F6.6°C 99% 3.8 mph W6.1 kmh W 14.5 mph23.3 kmh 30.62 in1036.9 mb 0.00 in0.0 mm 0.00 in/hr0.0 mm/hr 0.05 in1.3 mm
05:30 PM 44.2°F6.8°C 44.0°F6.7°C 99% Calm Calm 10.7 mph17.2 kmh 30.64 in1037.6 mb 0.00 in0.0 mm 0.00 in/hr0.0 mm/hr 0.05 in1.3 mm
05:45 PM 44.1°F6.7°C 43.8°F6.6°C 99% 3.8 mph W6.1 kmh W 10.7 mph17.2 kmh 30.64 in1037.6 mb 0.00 in0.0 mm 0.00 in/hr0.0 mm/hr 0.05 in1.3 mm
06:00 PM 43.9°F6.6°C 43.6°F6.4°C 99% Calm Calm 7.6 mph12.2 kmh 30.64 in1037.6 mb 0.00 in0.0 mm 0.00 in/hr0.0 mm/hr 0.05 in1.3 mm
06:15 PM 43.7°F6.5°C 43.4°F6.3°C 99% 0.7 mph W1.1 kmh W 7.6 mph12.2 kmh 30.65 in1037.9 mb 0.00 in0.0 mm 0.00 in/hr0.0 mm/hr 0.05 in1.3 mm
06:30 PM 44.2°F6.8°C 44.0°F6.7°C 99% 1.6 mph W2.6 kmh W 5.4 mph8.7 kmh 30.65 in1037.9 mb 0.00 in0.0 mm 0.00 in/hr0.0 mm/hr 0.05 in1.3 mm
06:45 PM 44.4°F6.9°C 44.2°F6.8°C 99% Calm Calm 6.0 mph9.7 kmh 30.65 in1037.9 mb 0.00 in0.0 mm 0.00 in/hr0.0 mm/hr 0.05 in1.3 mm
07:00 PM 44.6°F7.0°C 44.3°F6.8°C 99% Calm Calm 3.8 mph6.1 kmh 30.66 in1038.3 mb 0.00 in0.0 mm 0.00 in/hr0.0 mm/hr 0.05 in1.3 mm
07:15 PM 44.8°F7.1°C 44.5°F6.9°C 99% 2.2 mph W3.5 kmh W 8.3 mph13.4 kmh 30.66 in1038.3 mb 0.00 in0.0 mm 0.00 in/hr0.0 mm/hr 0.05 in1.3 mm
07:30 PM 44.4°F6.9°C 44.2°F6.8°C 99% Calm Calm 4.5 mph7.2 kmh 30.66 in1038.3 mb 0.00 in0.0 mm 0.00 in/hr0.0 mm/hr 0.05 in1.3 mm
07:45 PM 44.4°F6.9°C 44.2°F6.8°C 99% Calm Calm 2.2 mph3.5 kmh 30.66 in1038.3 mb 0.00 in0.0 mm 0.00 in/hr0.0 mm/hr 0.05 in1.3 mm
08:00 PM 44.2°F6.8°C 44.0°F6.7°C 99% 3.1 mph W5.0 kmh W 9.2 mph14.8 kmh 30.66 in1038.3 mb 0.00 in0.0 mm 0.00 in/hr0.0 mm/hr 0.05 in1.3 mm
08:15 PM 44.2°F6.8°C 44.0°F6.7°C 99% 1.6 mph W2.6 kmh W 9.8 mph15.8 kmh 30.66 in1038.3 mb 0.00 in0.0 mm 0.00 in/hr0.0 mm/hr 0.05 in1.3 mm
08:30 PM 44.1°F6.7°C 43.8°F6.6°C 99% 0.7 mph W1.1 kmh W 11.4 mph18.3 kmh 30.65 in1037.9 mb 0.00 in0.0 mm 0.00 in/hr0.0 mm/hr 0.05 in1.3 mm
08:45 PM 43.7°F6.5°C 43.4°F6.3°C 99% Calm Calm 3.8 mph6.1 kmh 30.66 in1038.3 mb 0.00 in0.0 mm 0.00 in/hr0.0 mm/hr 0.05 in1.3 mm
09:00 PM 43.0°F6.1°C 42.7°F5.9°C 99% Calm Calm 3.1 mph5.0 kmh 30.66 in1038.3 mb 0.00 in0.0 mm 0.00 in/hr0.0 mm/hr 0.05 in1.3 mm
09:15 PM 43.2°F6.2°C 42.9°F6.1°C 99% Calm Calm -- 30.66 in1038.3 mb 0.00 in0.0 mm 0.00 in/hr0.0 mm/hr 0.05 in1.3 mm
09:30 PM 43.3°F6.3°C 43.1°F6.2°C 99% Calm Calm 6.0 mph9.7 kmh 30.66 in1038.3 mb 0.00 in0.0 mm 0.00 in/hr0.0 mm/hr 0.05 in1.3 mm
09:45 PM 43.9°F6.6°C 43.6°F6.4°C 99% Calm Calm 4.5 mph7.2 kmh 30.66 in1038.3 mb 0.00 in0.0 mm 0.00 in/hr0.0 mm/hr 0.05 in1.3 mm
10:00 PM 43.9°F6.6°C 43.6°F6.4°C 99% Calm Calm 6.9 mph11.1 kmh 30.66 in1038.3 mb 0.00 in0.0 mm 0.00 in/hr0.0 mm/hr 0.05 in1.3 mm
10:15 PM 44.2°F6.8°C 44.0°F6.7°C 99% 1.6 mph WSW2.6 kmh WSW 7.6 mph12.2 kmh 30.66 in1038.3 mb 0.00 in0.0 mm 0.00 in/hr0.0 mm/hr 0.05 in1.3 mm
10:30 PM 43.9°F6.6°C 43.6°F6.4°C 99% Calm Calm 4.5 mph7.2 kmh 30.66 in1038.3 mb 0.00 in0.0 mm 0.00 in/hr0.0 mm/hr 0.05 in1.3 mm
10:45 PM 43.2°F6.2°C 42.9°F6.1°C 99% Calm Calm -- 30.65 in1037.9 mb 0.00 in0.0 mm 0.00 in/hr0.0 mm/hr 0.05 in1.3 mm
11:00 PM 43.0°F6.1°C 42.7°F5.9°C 99% Calm Calm -- 30.66 in1038.3 mb 0.00 in0.0 mm 0.00 in/hr0.0 mm/hr 0.05 in1.3 mm
11:15 PM 43.5°F6.4°C 43.3°F6.3°C 99% Calm Calm 6.9 mph11.1 kmh 30.66 in1038.3 mb 0.00 in0.0 mm 0.00 in/hr0.0 mm/hr 0.05 in1.3 mm
11:30 PM 43.3°F6.3°C 43.1°F6.2°C 99% Calm Calm -- 30.65 in1037.9 mb 0.00 in0.0 mm 0.00 in/hr0.0 mm/hr 0.05 in1.3 mm
11:45 PM 43.5°F6.4°C 43.3°F6.3°C 99% Calm Calm 4.5 mph7.2 kmh 30.65 in1037.9 mb 0.00 in0.0 mm 0.00 in/hr0.0 mm/hr 0.05 in1.3 mm